Aviation Digital Data Service (ADDS)

Output produced by METARs form (0306 UTC 22 April 2018)
found at http://aviationweather.gov/adds/metars/
 
KUNV 220255Z AUTO 02006KT 10SM CLR 10/M06 A3036 RMK AO2 T00971065
KUNV 220235Z AUTO 03005KT 10SM CLR 10/M06 A3035 RMK AO2 T01001065
KUNV 220215Z AUTO 04005KT 10SM CLR 10/M06 A3035 RMK AO2 T01021060
KUNV 220153Z 36003KT 10SM SKC 10/M06 A3035
KUNV 220053Z 00000KT 10SM SKC 12/M07 A3034
KUNV 212353Z 00000KT 10SM SKC 13/M07 A3032
KUNV 212253Z 36003KT 10SM SKC 14/M06 A3031
KUNV 212153Z 32006KT 10SM SKC 15/M06 A3031
KUNV 212053Z 33008KT 10SM SKC 15/M05 A3031
KUNV 211953Z 21006KT 10SM SKC 14/M05 A3033
KUNV 211917Z 17006KT 10SM SKC 13/M04 A3035
KUNV 211853Z 00000KT 10SM SKC 13/M05 A3036
KUNV 211753Z 26004KT 10SM SKC 11/M04 A3038
KUNV 211653Z 18003KT 10SM SKC 09/M03 A3041
KUNV 211553Z 00000KT 10SM SKC 08/M04 A3044
KUNV 211453Z 00000KT 10SM SKC 07/M04 A3046
KUNV 211353Z 00000KT 10SM SKC 05/M03 A3046
KUNV 211253Z 00000KT 10SM SKC 03/M02 A3046
KUNV 211153Z 00000KT 10SM SKC 00/M04 A3045
KUNV 211053Z 00000KT 10SM SKC M01/M05 A3043
KUNV 210953Z 00000KT 10SM SKC M02/M05 A3042
KUNV 210935Z AUTO 00000KT 10SM M01/M05 A3043 RMK AO2 T10121046
KUNV 210915Z AUTO 00000KT 10SM CLR M01/M04 A3043 RMK AO2 T10101045
KUNV 210855Z AUTO 00000KT 10SM CLR 00/M05 A3043 RMK AO2 T10051052
KUNV 210835Z AUTO 00000KT 10SM CLR 00/M05 A3043 RMK AO2 T00001048
KUNV 210815Z AUTO 25003KT 10SM CLR 00/M05 A3043 RMK AO2 T00011048
KUNV 210755Z AUTO 27003KT 10SM CLR 01/M05 A3043 RMK AO2 T00051046
KUNV 210735Z AUTO 00000KT 10SM CLR 00/M05 A3042 RMK AO2 T00001048
KUNV 210715Z AUTO 00000KT 10SM CLR 03/M05 A3041 RMK AO2 T00251047
KUNV 210655Z AUTO 00000KT 10SM CLR 03/M05 A3041 RMK AO2 T00261046
KUNV 210635Z AUTO 00000KT 10SM CLR 03/M05 A3041 RMK AO2 T00281047
KUNV 210615Z AUTO 10SM CLR 03/M05 A3041 RMK AO2 T00251047
KUNV 210555Z AUTO 00000KT 10SM CLR 02/M05 A3040 RMK AO2 T00231048 10082 20018
KUNV 210535Z AUTO 00000KT 10SM CLR 02/M05 A3041 RMK AO2 T00221049
KUNV 210515Z AUTO 00000KT 10SM CLR 03/M05 A3041 RMK AO2 T00261048
KUNV 210455Z AUTO 00000KT 10SM CLR 03/M05 A3040 RMK AO2 T00281046
KUNV 210435Z AUTO 00000KT 10SM CLR 03/M05 A3039 RMK AO2 T00321048
KUNV 210415Z AUTO 00000KT 10SM CLR 03/M05 A3038 RMK AO2 T00331048
KUNV 210355Z AUTO 35004KT 10SM CLR 04/M05 A3038 RMK AO2 T00361047 401151006
KUNV 210335Z AUTO 36004KT 10SM CLR 04/M05 A3038 RMK AO2 T00391048
KUNV 210315Z AUTO 35007KT 10SM CLR 05/M05 A3038 RMK AO2 T00451048
KUNV 210255Z AUTO 34009KT 10SM CLR 05/M05 A3038 RMK AO2 T00481048
KUNV 210235Z AUTO 34009KT 10SM CLR 05/M05 A3038 RMK AO2 T00501049
KUNV 210215Z AUTO 34009KT 10SM CLR 06/M05 A3038 RMK AO2 T00551050
KUNV 210153Z 34006KT 10SM SKC 06/M05 A3038
KUNV 210053Z 34006KT 10SM SKC 07/M06 A3035
KUNV 202353Z 33010KT 10SM SKC 08/M06 A3034
KUNV 202253Z 34010G17KT 10SM SKC 10/M06 A3031
KUNV 202153Z 33008G18KT 10SM SKC 11/M06 A3030
KUNV 202053Z 32014KT 10SM SKC 11/M05 A3028
KUNV 201953Z 35015KT 10SM SKC 11/M05 A3027
KUNV 201853Z 32007G20KT 10SM SKC 10/M05 A3027
KUNV 201753Z 31011G18KT 10SM SKC 09/M05 A3027
KUNV 201653Z 34014KT 10SM FEW050 08/M05 A3028
KUNV 201553Z 33008G18KT 10SM SKC 06/M05 A3029